Time;durP1;ratioP1;P1;durP2;ratioP2;P2;SDS_P1;SDS_P2;PMS_P1;PMS_P2;Temp;Humidity;BMP_temperature;BMP_pressure;BME280_temperature;BME280_humidity;BME280_pressure;Samples;Min_cycle;Max_cycle;Signal;HPM_P1;HPM_P2
2020/12/07 00:00:51;;;;;;;4.20;2.93;;;;;;;4.86;100.00;96221.19;5071219;28;20220;-75
2020/12/07 00:03:17;;;;;;;4.53;2.80;;;;;;;4.68;100.00;96228.16;5071259;28;20221;-75
2020/12/07 00:05:44;;;;;;;4.77;2.73;;;;;;;4.85;100.00;96213.47;5061044;28;20284;-76
2020/12/07 00:08:12;;;;;;;3.73;2.33;;;;;;;5.00;100.00;96216.66;5061022;28;20232;-76
2020/12/07 00:10:39;;;;;;;3.47;2.17;;;;;;;4.91;100.00;96218.72;5059195;28;20706;-75
2020/12/07 00:13:06;;;;;;;3.60;2.20;;;;;;;4.64;100.00;96221.66;5058989;28;20227;-75
2020/12/07 00:15:32;;;;;;;4.73;2.33;;;;;;;4.92;100.00;96222.97;5057344;28;20198;-76
2020/12/07 00:18:01;;;;;;;4.50;2.13;;;;;;;5.03;100.00;96221.53;5051450;28;20236;-76
2020/12/07 00:20:28;;;;;;;4.30;2.60;;;;;;;5.05;100.00;96212.38;5053804;28;20265;-76
2020/12/07 00:22:56;;;;;;;2.97;2.17;;;;;;;5.08;100.00;96206.66;5060633;28;20589;-76
2020/12/07 00:25:24;;;;;;;3.30;2.33;;;;;;;5.01;100.00;96197.94;5059963;28;20207;-76
2020/12/07 00:27:51;;;;;;;4.10;2.40;;;;;;;4.82;100.00;96198.84;5064963;28;20204;-76
2020/12/07 00:30:17;;;;;;;7.77;2.47;;;;;;;5.02;100.00;96198.78;5068465;28;20232;-76
2020/12/07 00:32:44;;;;;;;3.57;2.20;;;;;;;4.97;100.00;96204.66;5053383;28;20206;-76
2020/12/07 00:35:11;;;;;;;3.50;2.47;;;;;;;4.94;100.00;96209.56;5057422;28;20212;-75
2020/12/07 00:37:38;;;;;;;3.60;2.57;;;;;;;5.12;100.00;96199.13;5073714;28;20202;-76
2020/12/07 00:40:05;;;;;;;3.77;2.07;;;;;;;4.82;100.00;96214.69;5069234;28;20230;-76
2020/12/07 00:42:33;;;;;;;4.00;2.30;;;;;;;4.99;100.00;96207.09;5072561;28;20207;-76
2020/12/07 00:44:59;;;;;;;3.40;2.10;;;;;;;4.95;100.00;96219.13;5071774;28;20203;-75
2020/12/07 00:47:26;;;;;;;4.30;2.43;;;;;;;5.00;100.00;96209.53;5063764;28;20198;-77
2020/12/07 00:49:53;;;;;;;3.03;2.00;;;;;;;4.95;100.00;96213.81;5072735;28;20225;-75
2020/12/07 00:52:20;;;;;;;4.17;2.30;;;;;;;4.99;100.00;96218.50;5061229;28;20658;-76
2020/12/07 00:54:46;;;;;;;5.10;2.30;;;;;;;5.19;100.00;96200.69;5067854;28;20572;-76
2020/12/07 00:57:13;;;;;;;3.43;2.23;;;;;;;5.19;100.00;96200.69;5065417;28;20201;-76
2020/12/07 00:59:41;;;;;;;3.33;2.07;;;;;;;5.07;100.00;96197.09;5070560;28;20216;-76
2020/12/07 01:02:08;;;;;;;4.93;2.60;;;;;;;4.88;100.00;96208.56;5070334;28;20225;-76
2020/12/07 01:04:34;;;;;;;7.13;2.67;;;;;;;4.76;100.00;96226.09;5064802;28;20202;-76
2020/12/07 01:07:01;;;;;;;3.97;2.30;;;;;;;4.69;100.00;96229.78;5070656;28;20229;-76
2020/12/07 01:09:28;;;;;;;3.80;2.37;;;;;;;5.01;100.00;96234.13;5060195;28;20227;-76
2020/12/07 01:11:57;;;;;;;5.27;2.70;;;;;;;4.86;100.00;96234.41;5058850;28;20681;-76
2020/12/07 01:14:24;;;;;;;4.07;2.40;;;;;;;5.00;100.00;96241.25;5054465;28;20206;-75
2020/12/07 01:16:51;;;;;;;4.17;2.80;;;;;;;5.29;100.00;96226.69;5062204;28;20198;-76
2020/12/07 01:19:18;;;;;;;4.57;2.40;;;;;;;5.16;100.00;96234.69;5069175;28;20234;-75
2020/12/07 01:21:45;;;;;;;4.33;2.40;;;;;;;5.21;100.00;96224.28;5068304;28;20232;-76
2020/12/07 01:24:12;;;;;;;4.37;2.50;;;;;;;5.07;100.00;96236.75;5055254;28;20693;-76
2020/12/07 01:26:39;;;;;;;4.57;2.53;;;;;;;4.80;100.00;96226.47;5073109;28;20201;-75
2020/12/07 01:29:06;;;;;;;3.73;2.60;;;;;;;4.64;100.00;96225.13;5062696;28;20237;-75
2020/12/07 01:31:33;;;;;;;2.63;1.83;;;;;;;4.89;100.00;96212.84;5058778;28;20187;-75
2020/12/07 01:34:02;;;;;;;4.67;2.20;;;;;;;4.86;100.00;96217.72;5062367;28;20216;-75
2020/12/07 01:36:29;;;;;;;3.93;1.90;;;;;;;5.07;100.00;96220.09;5062246;28;20242;-75
2020/12/07 01:38:55;;;;;;;3.13;2.07;;;;;;;4.85;100.00;96232.78;5068665;28;20204;-76
2020/12/07 01:41:22;;;;;;;3.43;2.03;;;;;;;4.81;100.00;96213.06;5070227;28;20216;-75
2020/12/07 01:43:49;;;;;;;3.17;1.77;;;;;;;5.15;100.00;96206.63;5056284;28;20273;-75
2020/12/07 01:46:19;;;;;;;3.60;2.20;;;;;;;4.75;100.00;96219.19;5058117;28;20223;-75
2020/12/07 01:48:46;;;;;;;3.70;1.80;;;;;;;4.98;100.00;96226.63;5061892;28;20211;-75
2020/12/07 01:51:15;;;;;;;5.00;2.10;;;;;;;5.12;100.00;96215.78;5061848;28;20202;-75
2020/12/07 01:53:43;;;;;;;2.37;1.83;;;;;;;4.99;100.00;96213.22;5063431;28;20563;-75
2020/12/07 01:56:12;;;;;;;2.73;1.63;;;;;;;5.04;100.00;96205.47;5062783;28;20210;-75
2020/12/07 01:58:41;;;;;;;3.27;1.73;;;;;;;5.05;100.00;96199.16;5059830;28;20202;-75
2020/12/07 02:01:08;;;;;;;2.90;1.83;;;;;;;5.13;100.00;96200.75;5064499;28;20757;-76
2020/12/07 02:03:35;;;;;;;3.07;2.13;;;;;;;5.08;100.00;96216.44;5066014;28;20217;-76
2020/12/07 02:06:01;;;;;;;3.40;1.97;;;;;;;4.97;100.00;96215.25;5062326;28;20206;-75
2020/12/07 02:08:29;;;;;;;3.60;1.73;;;;;;;4.93;100.00;96231.75;5064251;28;20564;-75
2020/12/07 02:10:56;;;;;;;3.50;2.03;;;;;;;4.92;100.00;96243.34;5052797;28;20225;-76
2020/12/07 02:13:23;;;;;;;3.23;1.47;;;;;;;4.98;100.00;96248.56;5067369;28;20666;-76
2020/12/07 02:15:50;;;;;;;2.27;1.90;;;;;;;5.10;100.00;96260.13;5071589;28;20198;-76
2020/12/07 02:18:16;;;;;;;3.90;1.93;;;;;;;5.09;100.00;96268.28;5054810;28;20198;-76
2020/12/07 02:20:48;;;;;;;3.17;2.30;;;;;;;5.05;100.00;96269.69;5058790;28;20222;-76
2020/12/07 02:23:15;;;;;;;3.07;2.30;;;;;;;5.03;100.00;96280.47;5057704;28;20220;-75
2020/12/07 02:25:42;;;;;;;4.40;2.40;;;;;;;5.07;100.00;96281.69;5072816;28;20225;-76
2020/12/07 02:28:09;;;;;;;3.67;2.50;;;;;;;5.07;100.00;96280.91;5062223;28;20218;-75
2020/12/07 02:30:36;;;;;;;4.10;2.40;;;;;;;4.90;100.00;96288.47;5064403;28;20227;-75
2020/12/07 02:33:04;;;;;;;6.03;2.97;;;;;;;5.06;100.00;96288.00;5052736;28;20194;-75
2020/12/07 02:35:31;;;;;;;4.30;2.47;;;;;;;5.08;100.00;96287.81;5065333;28;20206;-76
2020/12/07 02:37:58;;;;;;;4.83;2.40;;;;;;;4.91;100.00;96297.19;5058731;28;20562;-75
2020/12/07 02:40:25;;;;;;;3.73;2.57;;;;;;;4.98;100.00;96293.50;5059886;28;20992;-76
2020/12/07 02:42:52;;;;;;;4.27;2.60;;;;;;;4.91;100.00;96300.66;5052493;28;20572;-75
2020/12/07 02:45:19;;;;;;;3.87;2.93;;;;;;;4.64;100.00;96306.19;5068027;28;20214;-76
2020/12/07 02:47:46;;;;;;;4.17;2.57;;;;;;;5.04;100.00;96300.63;5070908;28;20201;-75
2020/12/07 02:50:14;;;;;;;4.27;2.57;;;;;;;5.02;100.00;96313.22;5065790;28;20225;-76
2020/12/07 02:52:41;;;;;;;4.70;2.50;;;;;;;4.98;100.00;96312.00;5056783;28;20192;-75
2020/12/07 02:55:10;;;;;;;5.67;2.83;;;;;;;5.10;100.00;96309.53;5071891;28;20689;-75
2020/12/07 02:57:37;;;;;;;4.80;2.80;;;;;;;5.07;100.00;96305.47;5072158;28;20212;-76
2020/12/07 03:00:06;;;;;;;4.83;2.90;;;;;;;4.84;100.00;96312.25;5067304;28;20218;-76
2020/12/07 03:02:33;;;;;;;3.13;2.30;;;;;;;5.07;100.00;96318.69;5059232;28;20225;-75
2020/12/07 03:05:00;;;;;;;4.93;2.90;;;;;;;4.97;100.00;96320.97;5059870;28;20229;-75
2020/12/07 03:07:27;;;;;;;3.83;2.53;;;;;;;4.76;100.00;96329.13;5065901;28;20209;-75
2020/12/07 03:09:54;;;;;;;4.73;2.53;;;;;;;4.95;100.00;96327.47;5061601;28;20321;-75
2020/12/07 03:12:22;;;;;;;3.17;2.13;;;;;;;4.94;100.00;96331.97;5060424;28;20201;-74
2020/12/07 03:14:49;;;;;;;3.60;1.97;;;;;;;4.93;100.00;96346.16;5063142;28;20198;-75
2020/12/07 03:17:15;;;;;;;3.33;2.00;;;;;;;4.72;100.00;96346.41;5059054;28;20234;-75
2020/12/07 03:19:42;;;;;;;3.27;2.20;;;;;;;4.57;100.00;96343.16;5061338;28;20218;-76
2020/12/07 03:22:09;;;;;;;3.67;2.10;;;;;;;4.81;100.00;96345.19;5054571;28;20244;-76
2020/12/07 03:24:36;;;;;;;3.57;2.43;;;;;;;4.81;100.00;96354.94;5062011;28;20199;-76
2020/12/07 03:27:03;;;;;;;6.80;2.23;;;;;;;4.94;100.00;96353.09;5059640;28;20201;-76
2020/12/07 03:29:30;;;;;;;3.60;2.40;;;;;;;5.00;100.00;96351.44;5063387;28;20225;-76
2020/12/07 03:31:57;;;;;;;3.33;2.50;;;;;;;4.84;100.00;96344.78;5057220;28;20577;-75
2020/12/07 03:34:24;;;;;;;4.43;2.27;;;;;;;5.09;100.00;96347.56;5068377;28;20592;-75
2020/12/07 03:36:51;;;;;;;3.67;2.27;;;;;;;4.78;100.00;96350.88;5059182;28;20198;-75
2020/12/07 03:39:18;;;;;;;3.73;2.43;;;;;;;4.78;100.00;96353.50;5053728;28;20729;-75
2020/12/07 03:41:44;;;;;;;3.33;2.30;;;;;;;4.97;100.00;96347.38;5063868;28;20195;-75
2020/12/07 03:44:11;;;;;;;3.93;2.40;;;;;;;4.84;100.00;96349.25;5071181;28;20207;-75
2020/12/07 03:46:39;;;;;;;2.87;2.10;;;;;;;4.59;100.00;96356.19;5062313;28;20581;-76
2020/12/07 03:49:06;;;;;;;2.73;1.90;;;;;;;4.79;100.00;96357.81;5071548;28;20209;-76
2020/12/07 03:51:32;;;;;;;3.30;2.13;;;;;;;4.81;100.00;96362.84;5057091;28;20194;-76
2020/12/07 03:53:59;;;;;;;4.87;2.53;;;;;;;4.85;100.00;96362.25;5054942;28;20230;-76
2020/12/07 03:56:26;;;;;;;3.33;1.93;;;;;;;4.78;100.00;96356.16;5063917;28;20206;-76
2020/12/07 03:58:53;;;;;;;4.33;2.40;;;;;;;4.87;100.00;96356.78;5064969;28;20199;-76
2020/12/07 04:01:19;;;;;;;3.03;2.10;;;;;;;4.92;100.00;96355.13;5062555;28;20209;-76
2020/12/07 04:03:52;;;;;;;3.73;2.37;;;;;;;4.87;100.00;96343.56;5063502;28;20756;-75
2020/12/07 04:06:22;;;;;;;3.47;2.17;;;;;;;5.00;100.00;96341.69;5058239;28;20227;-75
2020/12/07 04:08:49;;;;;;;3.90;2.40;;;;;;;4.85;100.00;96335.84;5055538;28;20560;-75
2020/12/07 04:11:16;;;;;;;2.50;1.90;;;;;;;4.83;100.00;96343.13;5062149;28;20220;-77
2020/12/07 04:13:43;;;;;;;4.20;2.47;;;;;;;4.89;100.00;96357.38;5075514;28;20200;-76
2020/12/07 04:16:09;;;;;;;3.67;2.40;;;;;;;4.79;100.00;96363.09;5075519;28;20203;-76
2020/12/07 04:18:36;;;;;;;4.80;2.53;;;;;;;4.93;100.00;96367.31;5074830;28;20201;-75
2020/12/07 04:21:04;;;;;;;3.90;2.47;;;;;;;4.95;100.00;96367.13;5071869;28;20309;-75
2020/12/07 04:23:31;;;;;;;4.73;2.60;;;;;;;5.00;100.00;96381.34;5069622;28;20214;-75
2020/12/07 04:25:58;;;;;;;6.00;2.37;;;;;;;5.11;100.00;96380.72;5066502;28;20199;-75
2020/12/07 04:28:25;;;;;;;2.53;2.10;;;;;;;4.80;100.00;96375.28;5064537;28;20579;-75
2020/12/07 04:30:52;;;;;;;4.60;2.80;;;;;;;5.12;100.00;96377.03;5054784;28;20238;-75
2020/12/07 04:33:20;;;;;;;3.80;2.53;;;;;;;4.91;100.00;96382.56;5057625;28;20682;-75
2020/12/07 04:35:46;;;;;;;4.10;2.50;;;;;;;5.17;100.00;96393.09;5067140;28;20206;-75
2020/12/07 04:38:14;;;;;;;4.13;2.53;;;;;;;4.93;100.00;96388.47;5058706;28;20199;-76
2020/12/07 04:40:41;;;;;;;3.90;2.40;;;;;;;5.08;100.00;96385.59;5067463;28;20219;-74
2020/12/07 04:43:08;;;;;;;3.67;2.30;;;;;;;5.27;100.00;96390.84;5068471;28;20567;-76
2020/12/07 04:45:35;;;;;;;4.53;2.50;;;;;;;5.16;100.00;96388.00;5060167;28;20535;-75
2020/12/07 04:48:02;;;;;;;3.53;2.20;;;;;;;5.12;100.00;96389.47;5068689;28;20208;-76
2020/12/07 04:50:30;;;;;;;4.43;2.33;;;;;;;4.86;100.00;96392.94;5062709;28;20218;-75
2020/12/07 04:52:58;;;;;;;3.90;2.37;;;;;;;5.16;100.00;96402.06;5064401;28;20666;-75
2020/12/07 04:55:26;;;;;;;3.13;2.03;;;;;;;5.31;100.00;96401.81;5074645;28;20205;-76
2020/12/07 04:57:53;;;;;;;3.57;2.43;;;;;;;5.40;100.00;96395.28;5067479;28;20208;-75
2020/12/07 05:00:24;;;;;;;3.50;2.20;;;;;;;5.27;100.00;96400.59;5061815;28;20218;-76
2020/12/07 05:02:52;;;;;;;4.97;2.90;;;;;;;5.28;100.00;96402.25;5057059;28;20210;-77
2020/12/07 05:05:19;;;;;;;3.77;2.33;;;;;;;5.44;100.00;96391.22;5068469;28;20660;-77
2020/12/07 05:07:49;;;;;;;2.80;2.03;;;;;;;5.45;100.00;96390.19;5061814;28;20231;-75
2020/12/07 05:10:21;;;;;;;6.53;2.70;;;;;;;5.33;100.00;96391.84;5064309;28;20230;-76
2020/12/07 05:12:51;;;;;;;4.10;2.67;;;;;;;5.12;100.00;96386.81;5066602;28;20551;-75
2020/12/07 05:15:20;;;;;;;3.97;2.53;;;;;;;5.13;100.00;96383.16;5092410;22;20230;-77
2020/12/07 05:17:47;;;;;;;3.20;2.13;;;;;;;5.02;100.00;96378.50;5104375;28;20225;-80
2020/12/07 05:20:15;;;;;;;4.30;2.33;;;;;;;5.15;100.00;96379.28;5102200;28;20201;-82
2020/12/07 05:22:42;;;;;;;6.90;3.30;;;;;;;5.06;100.00;96383.16;5096910;28;20233;-80
2020/12/07 05:25:09;;;;;;;6.43;2.63;;;;;;;5.24;100.00;96393.09;5095314;28;20230;-80
2020/12/07 05:27:42;;;;;;;5.07;2.57;;;;;;;4.97;100.00;96391.53;5098816;28;20213;-81
2020/12/07 05:30:17;;;;;;;4.90;2.67;;;;;;;5.16;100.00;96386.19;5109048;28;20191;-77
2020/12/07 05:32:44;;;;;;;4.23;2.43;;;;;;;5.20;100.00;96391.88;5103911;28;20267;-79
2020/12/07 05:35:11;;;;;;;3.57;2.50;;;;;;;5.32;100.00;96388.38;5104116;28;20221;-80
2020/12/07 05:37:38;;;;;;;3.13;2.13;;;;;;;5.21;100.00;96389.03;5098506;28;20205;-81
2020/12/07 05:40:07;;;;;;;5.27;2.90;;;;;;;5.33;100.00;96391.84;5096274;28;20205;-81
2020/12/07 05:42:35;;;;;;;3.93;2.50;;;;;;;5.32;100.00;96395.50;5088569;28;20313;-78
2020/12/07 05:45:03;;;;;;;5.40;2.80;;;;;;;5.27;100.00;96396.13;5095594;28;20205;-77
2020/12/07 05:47:32;;;;;;;8.07;2.83;;;;;;;5.30;100.00;96394.91;5091083;28;20216;-76
2020/12/07 05:50:01;;;;;;;5.27;3.00;;;;;;;5.38;100.00;96395.50;5096725;28;20198;-79
2020/12/07 05:52:34;;;;;;;4.70;2.87;;;;;;;5.40;100.00;96400.56;5102457;28;20206;-78
2020/12/07 05:55:03;;;;;;;4.73;2.73;;;;;;;5.38;100.00;96402.63;5097507;28;20207;-79
2020/12/07 05:57:32;;;;;;;4.77;3.07;;;;;;;5.32;100.00;96406.06;5093757;28;20210;-81
2020/12/07 06:00:04;;;;;;;5.30;3.43;;;;;;;5.31;100.00;96407.94;5084593;28;20214;-78
2020/12/07 06:02:34;;;;;;;5.97;3.13;;;;;;;5.29;100.00;96407.31;5089679;28;20226;-79
2020/12/07 06:05:03;;;;;;;4.90;2.70;;;;;;;5.26;100.00;96417.50;5094527;28;20199;-76
2020/12/07 06:07:33;;;;;;;3.67;2.40;;;;;;;5.25;100.00;96416.69;5092695;28;20201;-77
2020/12/07 06:10:02;;;;;;;4.93;2.90;;;;;;;5.14;100.00;96419.94;5097436;28;20213;-81
2020/12/07 06:12:33;;;;;;;5.90;2.80;;;;;;;5.14;100.00;96414.66;5083889;28;20237;-77
2020/12/07 06:15:00;;;;;;;5.70;3.17;;;;;;;5.03;100.00;96412.63;5091496;28;20198;-80
2020/12/07 06:17:32;;;;;;;4.03;2.57;;;;;;;4.98;100.00;96414.28;5089662;28;20210;-80
2020/12/07 06:19:59;;;;;;;4.00;2.77;;;;;;;4.91;100.00;96424.88;5092959;28;20250;-79
2020/12/07 06:22:26;;;;;;;7.33;4.30;;;;;;;4.80;100.00;96429.94;5092205;28;20240;-79
2020/12/07 06:24:53;;;;;;;6.37;3.87;;;;;;;4.77;100.00;96430.38;5087563;28;20206;-76
2020/12/07 06:27:21;;;;;;;8.70;3.90;;;;;;;4.70;100.00;96427.72;5088953;28;20231;-78
2020/12/07 06:30:01;;;;;;;8.20;3.90;;;;;;;4.63;100.00;96428.72;5083034;28;20574;-83
2020/12/07 06:32:48;;;;;;;6.60;3.43;;;;;;;4.51;100.00;96432.97;5089928;28;20197;-78
2020/12/07 06:35:15;;;;;;;6.30;4.17;;;;;;;4.49;100.00;96441.09;5085961;28;20356;-78
2020/12/07 06:37:43;;;;;;;6.80;4.00;;;;;;;4.45;100.00;96442.53;5088762;28;20201;-78
2020/12/07 06:40:10;;;;;;;8.77;3.17;;;;;;;4.48;100.00;96455.31;5090284;28;20652;-79
2020/12/07 06:42:41;;;;;;;8.53;4.00;;;;;;;4.46;100.00;96453.88;5078825;28;20289;-80
2020/12/07 06:45:10;;;;;;;7.13;3.67;;;;;;;4.49;100.00;96450.84;5080193;28;20237;-79
2020/12/07 06:47:41;;;;;;;11.07;4.03;;;;;;;4.40;100.00;96455.50;5081603;28;20209;-75
2020/12/07 06:50:14;;;;;;;8.87;3.80;;;;;;;4.57;100.00;96456.75;5078305;28;20216;-71
2020/12/07 06:52:42;;;;;;;6.20;3.53;;;;;;;4.63;100.00;96455.94;5085016;28;20196;-75
2020/12/07 06:55:11;;;;;;;7.70;3.27;;;;;;;4.61;100.00;96459.78;5084432;28;20306;-77
2020/12/07 06:57:42;;;;;;;7.20;3.33;;;;;;;4.79;100.00;96455.56;5083475;28;20247;-74
2020/12/07 07:00:15;;;;;;;7.97;3.27;;;;;;;4.91;100.00;96456.56;5090249;28;20211;-72
2020/12/07 07:02:43;;;;;;;6.13;3.53;;;;;;;4.83;100.00;96462.06;5089203;28;20684;-75
2020/12/07 07:05:12;;;;;;;7.97;4.37;;;;;;;4.84;100.00;96462.88;5087616;28;20225;-74
2020/12/07 07:07:39;;;;;;;8.23;3.70;;;;;;;4.72;100.00;96470.59;5073192;28;20208;-72
2020/12/07 07:10:07;;;;;;;6.70;3.73;;;;;;;4.87;100.00;96473.06;5086794;28;20250;-77
2020/12/07 07:12:34;;;;;;;8.20;4.00;;;;;;;4.88;100.00;96480.75;5090912;28;20219;-76
2020/12/07 07:15:01;;;;;;;7.60;3.93;;;;;;;4.95;100.00;96483.41;5095334;28;20207;-81
2020/12/07 07:17:30;;;;;;;9.07;4.20;;;;;;;5.05;100.00;96489.09;5088349;28;20199;-81
2020/12/07 07:19:57;;;;;;;10.63;4.33;;;;;;;5.00;100.00;96492.38;5090737;28;20206;-78
2020/12/07 07:22:27;;;;;;;8.03;4.43;;;;;;;5.09;100.00;96499.09;5089071;28;20582;-79
2020/12/07 07:25:19;;;;;;;10.87;5.40;;;;;;;4.99;100.00;96495.22;5083625;28;20206;-80
2020/12/07 07:30:37;;;;;;;11.43;4.77;;;;;;;5.13;100.00;96483.63;5070230;28;20198;-79
2020/12/07 07:33:04;;;;;;;9.07;4.93;;;;;;;5.21;100.00;96486.88;5088891;28;20657;-79
2020/12/07 07:35:32;;;;;;;10.23;4.97;;;;;;;5.32;100.00;96486.25;5097453;28;20222;-83
2020/12/07 07:38:00;;;;;;;9.43;4.53;;;;;;;5.32;100.00;96493.34;5084314;28;20205;-76
2020/12/07 07:40:28;;;;;;;8.60;4.47;;;;;;;5.30;100.00;96498.03;5092199;28;20217;-75
2020/12/07 07:42:56;;;;;;;8.50;4.70;;;;;;;5.29;100.00;96505.16;5090633;28;20337;-75
2020/12/07 07:45:25;;;;;;;8.27;4.73;;;;;;;5.17;100.00;96500.69;5095106;28;20240;-75
2020/12/07 07:47:58;;;;;;;10.80;4.87;;;;;;;5.17;100.00;96512.09;5089283;28;20220;-75
2020/12/07 08:13:04;;;;;;;7.47;4.53;;;;;;;5.77;100.00;96518.91;5094828;28;20217;-74
2020/12/07 08:15:40;;;;;;;10.33;5.13;;;;;;;5.99;100.00;96528.28;5092373;28;20239;-74
2020/12/07 08:18:08;;;;;;;8.67;4.33;;;;;;;5.50;100.00;96525.28;5098004;28;20642;-74
2020/12/07 08:20:36;;;;;;;7.43;4.43;;;;;;;5.72;100.00;96526.66;5094584;28;20259;-74
2020/12/07 08:23:05;;;;;;;9.00;4.53;;;;;;;6.03;100.00;96532.94;5090573;28;20725;-74
2020/12/07 08:25:50;;;;;;;7.10;4.60;;;;;;;6.21;100.00;96532.28;5089561;28;20341;-74
2020/12/07 08:28:21;;;;;;;7.57;4.50;;;;;;;6.12;100.00;96539.63;5080919;28;20214;-75
2020/12/07 08:30:58;;;;;;;7.20;4.30;;;;;;;6.02;100.00;96538.44;5079287;28;20526;-74
2020/12/07 08:33:25;;;;;;;6.83;4.23;;;;;;;6.02;100.00;96530.50;5079885;28;20214;-75
2020/12/07 08:35:53;;;;;;;6.90;4.40;;;;;;;6.01;100.00;96535.00;5086372;28;20291;-75
2020/12/07 08:38:31;;;;;;;7.47;4.23;;;;;;;6.16;100.00;96537.38;5088692;28;20216;-75
2020/12/07 08:41:11;;;;;;;8.87;4.20;;;;;;;6.17;100.00;96545.13;5086915;28;20567;-75
2020/12/07 08:43:42;;;;;;;6.13;4.20;;;;;;;6.30;100.00;96552.22;5090585;28;20222;-75
2020/12/07 08:46:10;;;;;;;7.23;3.43;;;;;;;6.30;100.00;96546.91;5094111;28;20227;-75
2020/12/07 08:48:38;;;;;;;7.13;3.97;;;;;;;6.20;100.00;96538.59;5094108;28;20209;-74
2020/12/07 08:51:05;;;;;;;7.33;4.27;;;;;;;6.30;100.00;96553.00;5089792;28;20660;-74
2020/12/07 08:53:32;;;;;;;6.17;3.73;;;;;;;6.15;100.00;96547.16;5095477;28;20221;-74
2020/12/07 08:55:58;;;;;;;6.87;4.07;;;;;;;6.59;100.00;96551.66;5089187;28;20590;-74
2020/12/07 08:58:26;;;;;;;7.17;3.90;;;;;;;6.46;100.00;96551.75;5091455;28;20218;-74
2020/12/07 09:00:53;;;;;;;6.00;3.53;;;;;;;6.74;100.00;96555.66;5098558;28;20204;-75
2020/12/07 09:03:20;;;;;;;5.97;3.43;;;;;;;6.32;100.00;96558.94;5099179;28;20598;-75
2020/12/07 09:05:47;;;;;;;5.93;3.77;;;;;;;6.70;100.00;96559.75;5091440;28;20243;-75
2020/12/07 09:08:13;;;;;;;6.03;2.87;;;;;;;6.37;100.00;96564.41;5091868;28;20203;-74
2020/12/07 09:10:40;;;;;;;4.90;3.10;;;;;;;6.86;100.00;96569.06;5088589;28;20709;-75
2020/12/07 09:13:07;;;;;;;5.90;3.40;;;;;;;6.97;100.00;96571.03;5092179;28;20207;-75
2020/12/07 09:15:35;;;;;;;5.17;3.23;;;;;;;7.12;100.00;96579.50;5085076;28;20320;-73
2020/12/07 09:18:02;;;;;;;5.80;3.50;;;;;;;7.03;100.00;96575.50;5093213;28;20199;-72
2020/12/07 09:20:28;;;;;;;5.70;3.27;;;;;;;6.92;100.00;96586.78;5087194;28;20211;-74
2020/12/07 09:22:55;;;;;;;4.53;3.00;;;;;;;7.20;100.00;96579.28;5086685;28;20315;-73
2020/12/07 09:25:22;;;;;;;3.67;2.70;;;;;;;6.99;100.00;96587.53;5092447;28;20233;-73
2020/12/07 09:27:49;;;;;;;4.20;3.07;;;;;;;6.78;100.00;96586.03;5084395;28;20319;-74
2020/12/07 09:30:16;;;;;;;4.30;2.23;;;;;;;6.98;100.00;96585.91;5086358;28;20200;-74
2020/12/07 09:32:43;;;;;;;5.37;2.70;;;;;;;7.10;100.00;96592.19;5084240;28;20201;-75
2020/12/07 09:35:10;;;;;;;4.20;2.67;;;;;;;7.09;100.00;96593.19;5088649;28;20237;-74
2020/12/07 09:37:37;;;;;;;3.60;2.50;;;;;;;7.12;100.00;96587.47;5088227;28;20207;-75
2020/12/07 09:40:05;;;;;;;3.80;2.63;;;;;;;7.18;100.00;96590.09;5089826;28;20215;-74
2020/12/07 09:42:32;;;;;;;3.73;2.70;;;;;;;7.09;100.00;96591.38;5086648;28;20258;-74
2020/12/07 09:44:59;;;;;;;5.97;2.90;;;;;;;6.97;100.00;96585.13;5089346;28;20299;-75
2020/12/07 09:47:27;;;;;;;4.53;2.40;;;;;;;7.56;100.00;96582.06;5093022;28;20211;-74
2020/12/07 09:49:55;;;;;;;4.50;2.90;;;;;;;7.26;100.00;96589.81;5087270;28;20212;-74
2020/12/07 09:52:22;;;;;;;5.17;3.43;;;;;;;7.16;100.00;96592.13;5086179;28;20216;-74
2020/12/07 09:54:49;;;;;;;4.73;2.57;;;;;;;7.72;100.00;96586.81;5087163;28;20231;-82
2020/12/07 09:57:16;;;;;;;5.17;2.93;;;;;;;8.10;100.00;96579.50;5098847;28;20212;-81
2020/12/07 09:59:47;;;;;;;4.03;2.40;;;;;;;7.99;100.00;96580.22;5093356;28;20227;-79
2020/12/07 10:02:14;;;;;;;4.17;2.50;;;;;;;8.36;100.00;96587.22;5091322;28;20226;-81
2020/12/07 10:04:43;;;;;;;3.33;2.23;;;;;;;8.04;100.00;96585.69;5087993;28;20576;-79
2020/12/07 10:07:11;;;;;;;3.77;2.20;;;;;;;7.84;100.00;96585.06;5085062;28;20243;-80
2020/12/07 10:09:38;;;;;;;3.30;2.33;;;;;;;8.09;100.00;96583.19;5079123;28;20215;-77
2020/12/07 10:12:05;;;;;;;4.07;2.40;;;;;;;8.79;100.00;96582.63;5090865;28;20255;-78
2020/12/07 10:14:32;;;;;;;4.13;2.40;;;;;;;8.07;100.00;96582.59;5087368;28;20284;-79
2020/12/07 10:16:59;;;;;;;4.03;2.23;;;;;;;8.11;100.00;96579.28;5084584;28;20743;-80
2020/12/07 10:19:26;;;;;;;3.17;2.20;;;;;;;8.79;100.00;96569.31;5092427;28;20228;-81
2020/12/07 10:21:53;;;;;;;3.00;2.20;;;;;;;8.99;100.00;96562.69;5090859;28;20211;-81
2020/12/07 10:24:21;;;;;;;2.60;1.90;;;;;;;8.87;100.00;96571.66;5081797;28;20319;-80
2020/12/07 10:26:48;;;;;;;2.53;2.10;;;;;;;7.79;100.00;96569.81;5089389;28;20225;-82
2020/12/07 10:29:15;;;;;;;2.83;1.87;;;;;;;8.83;100.00;96578.47;5085281;28;20208;-81
2020/12/07 10:31:42;;;;;;;2.83;1.93;;;;;;;8.92;100.00;96577.13;5082425;28;20197;-78
2020/12/07 10:34:10;;;;;;;2.27;1.67;;;;;;;8.64;100.00;96582.19;5089958;28;20204;-82
2020/12/07 10:36:38;;;;;;;2.83;1.87;;;;;;;8.44;100.00;96582.44;5089879;28;20221;-82
2020/12/07 10:39:07;;;;;;;2.13;1.70;;;;;;;9.11;100.00;96562.72;5083663;28;20723;-77
2020/12/07 10:41:34;;;;;;;2.37;1.73;;;;;;;8.30;100.00;96572.16;5087756;28;20661;-75
2020/12/07 10:44:01;;;;;;;2.07;1.50;;;;;;;8.74;100.00;96567.34;5088377;28;20217;-76
2020/12/07 10:46:31;;;;;;;2.80;1.70;;;;;;;9.35;100.00;96569.75;5092132;28;20224;-81
2020/12/07 10:48:58;;;;;;;2.93;1.60;;;;;;;8.69;100.00;96569.88;5086654;28;20216;-84
2020/12/07 10:51:25;;;;;;;3.03;2.03;;;;;;;8.84;100.00;96570.25;5095503;28;20616;-82
2020/12/07 10:53:52;;;;;;;2.37;1.60;;;;;;;9.42;100.00;96563.28;5093602;28;20245;-82
2020/12/07 10:56:18;;;;;;;3.77;1.97;;;;;;;9.08;100.00;96563.19;5091366;28;20228;-84
2020/12/07 10:58:46;;;;;;;2.73;1.63;;;;;;;9.35;100.00;96577.75;5091796;28;20296;-81
2020/12/07 11:01:17;;;;;;;2.17;1.87;;;;;;;9.36;100.00;96572.19;5089751;28;20295;-85
2020/12/07 11:03:45;;;;;;;3.17;2.00;;;;;;;9.12;100.00;96577.66;5098535;28;20293;-82
2020/12/07 11:06:15;;;;;;;2.33;2.00;;;;;;;8.11;100.00;96583.78;5096761;28;20230;-84
2020/12/07 11:08:50;;;;;;;3.20;1.90;;;;;;;7.67;100.00;96584.00;5091056;28;20304;-84
2020/12/07 11:11:17;;;;;;;2.67;1.83;;;;;;;7.45;100.00;96594.16;5097303;28;20209;-87
2020/12/07 11:13:46;;;;;;;3.80;2.23;;;;;;;7.13;100.00;96600.53;5108448;28;20203;-80
2020/12/07 11:16:15;;;;;;;3.03;1.90;;;;;;;8.15;100.00;96595.59;5109920;28;20259;-87
2020/12/07 11:18:42;;;;;;;4.30;1.70;;;;;;;7.48;100.00;96596.41;5093161;28;20215;-82
2020/12/07 11:21:12;;;;;;;2.93;1.90;;;;;;;7.46;100.00;96585.19;5084603;28;20303;-77
2020/12/07 11:23:41;;;;;;;2.90;1.80;;;;;;;7.32;100.00;96588.16;5084689;28;20208;-76
2020/12/07 11:26:08;;;;;;;3.00;2.10;;;;;;;7.90;100.00;96589.50;5088755;28;20720;-82
2020/12/07 11:28:37;;;;;;;4.27;2.30;;;;;;;7.99;100.00;96588.19;5084719;28;20215;-82
2020/12/07 11:31:03;;;;;;;3.10;1.70;;;;;;;8.36;100.00;96593.34;5086384;28;20212;-85
2020/12/07 11:33:32;;;;;;;2.83;1.83;;;;;;;8.50;100.00;96586.88;5092587;28;20210;-82
2020/12/07 11:35:58;;;;;;;4.40;1.90;;;;;;;8.94;100.00;96575.06;5085255;28;20296;-82
2020/12/07 11:38:29;;;;;;;2.47;1.90;;;;;;;8.31;100.00;96571.94;5092042;28;20205;-81
2020/12/07 11:44:07;;;;;;;2.77;1.90;;;;;;;8.29;100.00;96576.69;5054807;28;20708;-82
2020/12/07 11:46:39;;;;;;;3.20;1.43;;;;;;;8.63;100.00;96580.56;5078634;28;20233;-84
2020/12/07 11:49:07;;;;;;;2.50;2.00;;;;;;;8.70;100.00;96587.44;5084724;28;20230;-83
2020/12/07 11:51:34;;;;;;;3.83;2.20;;;;;;;8.77;100.00;96593.47;5082760;28;20208;-81
2020/12/07 11:54:01;;;;;;;2.53;1.50;;;;;;;8.17;100.00;96588.22;5089865;28;20268;-84
2020/12/07 11:56:30;;;;;;;3.07;1.63;;;;;;;8.25;100.00;96590.63;5093728;28;20248;-84
2020/12/07 11:58:57;;;;;;;2.23;1.47;;;;;;;8.54;100.00;96595.19;5090739;28;20251;-81
2020/12/07 12:01:24;;;;;;;2.13;1.53;;;;;;;7.97;100.00;96596.38;5090319;28;20212;-82
2020/12/07 12:03:51;;;;;;;1.70;1.33;;;;;;;8.31;100.00;96600.34;5081066;28;20235;-83
2020/12/07 12:06:23;;;;;;;1.93;1.60;;;;;;;8.39;100.00;96595.59;5090226;28;20264;-80